sensor_id;sensor_type;location;lat;lon;timestamp;temperature;humidity
2226;DHT22;1119;48.288;8.726;2023-04-09T00:02:04;7.10;99.90
2226;DHT22;1119;48.288;8.726;2023-04-09T00:04:52;7.00;99.90
2226;DHT22;1119;48.288;8.726;2023-04-09T00:07:39;7.00;99.90
2226;DHT22;1119;48.288;8.726;2023-04-09T00:10:27;6.90;99.90
2226;DHT22;1119;48.288;8.726;2023-04-09T00:13:16;6.90;99.90
2226;DHT22;1119;48.288;8.726;2023-04-09T00:16:04;6.90;99.90
2226;DHT22;1119;48.288;8.726;2023-04-09T00:18:52;6.90;99.90
2226;DHT22;1119;48.288;8.726;2023-04-09T00:21:39;6.80;99.90
2226;DHT22;1119;48.288;8.726;2023-04-09T00:24:27;6.90;99.90
2226;DHT22;1119;48.288;8.726;2023-04-09T00:27:14;6.90;99.90
2226;DHT22;1119;48.288;8.726;2023-04-09T00:30:04;6.80;99.90
2226;DHT22;1119;48.288;8.726;2023-04-09T00:32:53;6.80;99.90
2226;DHT22;1119;48.288;8.726;2023-04-09T00:35:40;6.80;99.90
2226;DHT22;1119;48.288;8.726;2023-04-09T00:38:28;6.80;99.90
2226;DHT22;1119;48.288;8.726;2023-04-09T00:41:16;6.90;99.90
2226;DHT22;1119;48.288;8.726;2023-04-09T00:44:04;6.90;99.90
2226;DHT22;1119;48.288;8.726;2023-04-09T00:46:53;6.80;99.90
2226;DHT22;1119;48.288;8.726;2023-04-09T00:49:41;6.80;99.90
2226;DHT22;1119;48.288;8.726;2023-04-09T00:52:29;6.80;99.90
2226;DHT22;1119;48.288;8.726;2023-04-09T00:55:17;6.80;99.90
2226;DHT22;1119;48.288;8.726;2023-04-09T00:58:07;6.60;99.90
2226;DHT22;1119;48.288;8.726;2023-04-09T01:00:55;6.60;99.90
2226;DHT22;1119;48.288;8.726;2023-04-09T01:03:44;6.60;99.90
2226;DHT22;1119;48.288;8.726;2023-04-09T01:06:36;6.60;99.90
2226;DHT22;1119;48.288;8.726;2023-04-09T01:09:29;6.60;99.90
2226;DHT22;1119;48.288;8.726;2023-04-09T01:12:34;6.60;99.90
2226;DHT22;1119;48.288;8.726;2023-04-09T01:15:26;6.50;99.90
2226;DHT22;1119;48.288;8.726;2023-04-09T01:18:22;6.40;99.90
2226;DHT22;1119;48.288;8.726;2023-04-09T01:21:18;6.30;99.90
2226;DHT22;1119;48.288;8.726;2023-04-09T01:24:18;6.10;99.90
2226;DHT22;1119;48.288;8.726;2023-04-09T01:27:10;6.00;99.90
2226;DHT22;1119;48.288;8.726;2023-04-09T01:30:09;6.00;99.90
2226;DHT22;1119;48.288;8.726;2023-04-09T01:32:59;6.00;99.90
2226;DHT22;1119;48.288;8.726;2023-04-09T01:35:48;6.00;99.90
2226;DHT22;1119;48.288;8.726;2023-04-09T01:38:40;6.00;99.90
2226;DHT22;1119;48.288;8.726;2023-04-09T01:41:31;6.00;99.90
2226;DHT22;1119;48.288;8.726;2023-04-09T01:44:19;6.10;99.90
2226;DHT22;1119;48.288;8.726;2023-04-09T01:47:09;6.30;99.90
2226;DHT22;1119;48.288;8.726;2023-04-09T01:49:57;6.30;99.90
2226;DHT22;1119;48.288;8.726;2023-04-09T01:52:45;6.30;99.90
2226;DHT22;1119;48.288;8.726;2023-04-09T01:55:33;6.40;99.90
2226;DHT22;1119;48.288;8.726;2023-04-09T01:58:20;6.40;99.90
2226;DHT22;1119;48.288;8.726;2023-04-09T02:01:10;6.40;99.90
2226;DHT22;1119;48.288;8.726;2023-04-09T02:04:03;6.40;99.90
2226;DHT22;1119;48.288;8.726;2023-04-09T02:06:56;6.40;99.90
2226;DHT22;1119;48.288;8.726;2023-04-09T02:09:47;6.40;99.90
2226;DHT22;1119;48.288;8.726;2023-04-09T02:12:36;6.50;99.90
2226;DHT22;1119;48.288;8.726;2023-04-09T02:15:27;6.50;99.90
2226;DHT22;1119;48.288;8.726;2023-04-09T02:18:21;6.50;99.90
2226;DHT22;1119;48.288;8.726;2023-04-09T02:21:12;6.60;99.90
2226;DHT22;1119;48.288;8.726;2023-04-09T02:23:59;6.60;99.90
2226;DHT22;1119;48.288;8.726;2023-04-09T02:26:47;6.70;99.90
2226;DHT22;1119;48.288;8.726;2023-04-09T02:29:34;6.70;99.90
2226;DHT22;1119;48.288;8.726;2023-04-09T02:32:22;6.80;99.90
2226;DHT22;1119;48.288;8.726;2023-04-09T02:35:10;6.70;99.90
2226;DHT22;1119;48.288;8.726;2023-04-09T02:37:59;6.60;99.90
2226;DHT22;1119;48.288;8.726;2023-04-09T02:40:47;6.60;99.90
2226;DHT22;1119;48.288;8.726;2023-04-09T02:43:34;6.60;99.90
2226;DHT22;1119;48.288;8.726;2023-04-09T02:46:22;6.60;99.90
2226;DHT22;1119;48.288;8.726;2023-04-09T02:49:09;6.70;99.90
2226;DHT22;1119;48.288;8.726;2023-04-09T02:51:57;6.60;99.90
2226;DHT22;1119;48.288;8.726;2023-04-09T02:54:46;6.60;99.90
2226;DHT22;1119;48.288;8.726;2023-04-09T02:57:33;6.60;99.90
2226;DHT22;1119;48.288;8.726;2023-04-09T03:00:21;6.60;99.90
2226;DHT22;1119;48.288;8.726;2023-04-09T03:03:09;6.50;99.90
2226;DHT22;1119;48.288;8.726;2023-04-09T03:05:57;6.50;99.90
2226;DHT22;1119;48.288;8.726;2023-04-09T03:08:44;6.50;99.90
2226;DHT22;1119;48.288;8.726;2023-04-09T03:11:33;6.50;99.90
2226;DHT22;1119;48.288;8.726;2023-04-09T03:14:21;6.40;99.90
2226;DHT22;1119;48.288;8.726;2023-04-09T03:17:08;6.30;99.90
2226;DHT22;1119;48.288;8.726;2023-04-09T03:19:56;6.30;99.90
2226;DHT22;1119;48.288;8.726;2023-04-09T03:22:52;6.30;99.90
2226;DHT22;1119;48.288;8.726;2023-04-09T03:26:04;6.20;99.90
2226;DHT22;1119;48.288;8.726;2023-04-09T03:29:01;6.00;99.90
2226;DHT22;1119;48.288;8.726;2023-04-09T03:31:49;5.90;99.90
2226;DHT22;1119;48.288;8.726;2023-04-09T03:34:37;5.90;99.90
2226;DHT22;1119;48.288;8.726;2023-04-09T03:37:24;5.90;99.90
2226;DHT22;1119;48.288;8.726;2023-04-09T03:40:12;5.90;99.90
2226;DHT22;1119;48.288;8.726;2023-04-09T03:43:00;5.90;99.90
2226;DHT22;1119;48.288;8.726;2023-04-09T03:45:53;5.90;99.90
2226;DHT22;1119;48.288;8.726;2023-04-09T03:48:44;5.80;99.90
2226;DHT22;1119;48.288;8.726;2023-04-09T03:51:32;5.80;99.90
2226;DHT22;1119;48.288;8.726;2023-04-09T03:54:20;5.80;99.90
2226;DHT22;1119;48.288;8.726;2023-04-09T03:57:08;5.80;99.90
2226;DHT22;1119;48.288;8.726;2023-04-09T03:59:59;5.80;99.90
2226;DHT22;1119;48.288;8.726;2023-04-09T04:02:49;5.90;99.90
2226;DHT22;1119;48.288;8.726;2023-04-09T04:05:44;5.80;99.90
2226;DHT22;1119;48.288;8.726;2023-04-09T04:08:34;5.80;99.90
2226;DHT22;1119;48.288;8.726;2023-04-09T04:11:22;5.80;99.90
2226;DHT22;1119;48.288;8.726;2023-04-09T04:14:14;5.80;99.90
2226;DHT22;1119;48.288;8.726;2023-04-09T04:17:04;5.80;99.90
2226;DHT22;1119;48.288;8.726;2023-04-09T04:19:53;5.80;99.90
2226;DHT22;1119;48.288;8.726;2023-04-09T04:22:42;5.70;99.90
2226;DHT22;1119;48.288;8.726;2023-04-09T04:25:30;5.70;99.90
2226;DHT22;1119;48.288;8.726;2023-04-09T04:28:19;5.70;99.90
2226;DHT22;1119;48.288;8.726;2023-04-09T04:31:07;5.50;99.90
2226;DHT22;1119;48.288;8.726;2023-04-09T04:33:56;5.50;99.90
2226;DHT22;1119;48.288;8.726;2023-04-09T04:36:45;5.50;99.90
2226;DHT22;1119;48.288;8.726;2023-04-09T04:39:33;5.50;99.90
2226;DHT22;1119;48.288;8.726;2023-04-09T04:42:25;5.30;99.90
2226;DHT22;1119;48.288;8.726;2023-04-09T04:45:13;5.20;99.90
2226;DHT22;1119;48.288;8.726;2023-04-09T04:48:06;5.30;99.90
2226;DHT22;1119;48.288;8.726;2023-04-09T04:50:54;5.40;99.90
2226;DHT22;1119;48.288;8.726;2023-04-09T04:53:45;5.30;99.90
2226;DHT22;1119;48.288;8.726;2023-04-09T04:56:34;5.30;99.90
2226;DHT22;1119;48.288;8.726;2023-04-09T04:59:28;5.40;99.90
2226;DHT22;1119;48.288;8.726;2023-04-09T05:02:20;5.30;99.90
2226;DHT22;1119;48.288;8.726;2023-04-09T05:05:17;5.30;99.90
2226;DHT22;1119;48.288;8.726;2023-04-09T05:08:14;5.30;99.90
2226;DHT22;1119;48.288;8.726;2023-04-09T05:11:04;5.30;99.90
2226;DHT22;1119;48.288;8.726;2023-04-09T05:13:56;5.30;99.90
2226;DHT22;1119;48.288;8.726;2023-04-09T05:16:44;5.20;99.90
2226;DHT22;1119;48.288;8.726;2023-04-09T05:19:32;5.30;99.90
2226;DHT22;1119;48.288;8.726;2023-04-09T05:22:22;5.20;99.90
2226;DHT22;1119;48.288;8.726;2023-04-09T05:25:10;5.30;99.90
2226;DHT22;1119;48.288;8.726;2023-04-09T05:28:02;5.30;99.90
2226;DHT22;1119;48.288;8.726;2023-04-09T05:30:52;5.30;99.90
2226;DHT22;1119;48.288;8.726;2023-04-09T05:33:40;5.30;99.90
2226;DHT22;1119;48.288;8.726;2023-04-09T05:36:35;5.40;99.90
2226;DHT22;1119;48.288;8.726;2023-04-09T05:39:23;5.40;99.90
2226;DHT22;1119;48.288;8.726;2023-04-09T05:42:11;5.40;99.90
2226;DHT22;1119;48.288;8.726;2023-04-09T05:45:19;5.30;99.90
2226;DHT22;1119;48.288;8.726;2023-04-09T05:48:11;5.40;99.90
2226;DHT22;1119;48.288;8.726;2023-04-09T05:50:59;5.30;99.90
2226;DHT22;1119;48.288;8.726;2023-04-09T05:53:47;5.40;99.90
2226;DHT22;1119;48.288;8.726;2023-04-09T05:56:34;5.40;99.90
2226;DHT22;1119;48.288;8.726;2023-04-09T05:59:22;5.50;99.90
2226;DHT22;1119;48.288;8.726;2023-04-09T06:02:11;5.50;99.90
2226;DHT22;1119;48.288;8.726;2023-04-09T06:04:59;5.50;99.90
2226;DHT22;1119;48.288;8.726;2023-04-09T06:07:46;5.50;99.90
2226;DHT22;1119;48.288;8.726;2023-04-09T06:10:34;5.50;99.90
2226;DHT22;1119;48.288;8.726;2023-04-09T06:13:22;5.60;99.90
2226;DHT22;1119;48.288;8.726;2023-04-09T06:16:10;5.70;99.90
2226;DHT22;1119;48.288;8.726;2023-04-09T06:18:59;5.90;99.90
2226;DHT22;1119;48.288;8.726;2023-04-09T06:21:46;6.10;99.90
2226;DHT22;1119;48.288;8.726;2023-04-09T06:24:34;6.30;99.90
2226;DHT22;1119;48.288;8.726;2023-04-09T06:27:21;6.60;99.90
2226;DHT22;1119;48.288;8.726;2023-04-09T06:30:10;7.10;99.90
2226;DHT22;1119;48.288;8.726;2023-04-09T06:32:58;7.70;99.90
2226;DHT22;1119;48.288;8.726;2023-04-09T06:35:48;8.20;99.90
2226;DHT22;1119;48.288;8.726;2023-04-09T06:38:35;8.80;98.80
2226;DHT22;1119;48.288;8.726;2023-04-09T06:41:23;9.70;97.10
2226;DHT22;1119;48.288;8.726;2023-04-09T06:44:11;10.70;95.20
2226;DHT22;1119;48.288;8.726;2023-04-09T06:46:59;11.90;92.70
2226;DHT22;1119;48.288;8.726;2023-04-09T06:49:47;13.20;89.40
2226;DHT22;1119;48.288;8.726;2023-04-09T06:52:36;14.30;80.90
2226;DHT22;1119;48.288;8.726;2023-04-09T06:55:23;15.40;75.00
2226;DHT22;1119;48.288;8.726;2023-04-09T06:58:11;16.00;71.10
2226;DHT22;1119;48.288;8.726;2023-04-09T07:00:59;17.00;61.80
2226;DHT22;1119;48.288;8.726;2023-04-09T07:03:47;17.10;62.10
2226;DHT22;1119;48.288;8.726;2023-04-09T07:06:34;17.40;59.20
2226;DHT22;1119;48.288;8.726;2023-04-09T07:09:23;17.90;57.50
2226;DHT22;1119;48.288;8.726;2023-04-09T07:12:11;17.90;56.10
2226;DHT22;1119;48.288;8.726;2023-04-09T07:14:59;18.30;54.90
2226;DHT22;1119;48.288;8.726;2023-04-09T07:17:46;18.50;53.70
2226;DHT22;1119;48.288;8.726;2023-04-09T07:20:34;18.70;53.10
2226;DHT22;1119;48.288;8.726;2023-04-09T07:23:21;18.30;53.30
2226;DHT22;1119;48.288;8.726;2023-04-09T07:26:10;17.20;53.00
2226;DHT22;1119;48.288;8.726;2023-04-09T07:28:58;16.40;55.50
2226;DHT22;1119;48.288;8.726;2023-04-09T07:31:45;16.70;55.80
2226;DHT22;1119;48.288;8.726;2023-04-09T07:34:33;17.30;54.90
2226;DHT22;1119;48.288;8.726;2023-04-09T07:37:22;17.40;55.00
2226;DHT22;1119;48.288;8.726;2023-04-09T07:40:10;17.90;54.60
2226;DHT22;1119;48.288;8.726;2023-04-09T07:42:59;18.20;54.00
2226;DHT22;1119;48.288;8.726;2023-04-09T07:45:47;18.50;53.00
2226;DHT22;1119;48.288;8.726;2023-04-09T07:51:45;17.10;52.40
2226;DHT22;1119;48.288;8.726;2023-04-09T07:54:33;15.00;53.30
2226;DHT22;1119;48.288;8.726;2023-04-09T07:57:21;14.40;57.70
2226;DHT22;1119;48.288;8.726;2023-04-09T08:00:11;15.10;57.40
2226;DHT22;1119;48.288;8.726;2023-04-09T08:02:59;16.10;56.90
2226;DHT22;1119;48.288;8.726;2023-04-09T08:05:46;17.10;54.80
2226;DHT22;1119;48.288;8.726;2023-04-09T08:08:34;17.60;53.40
2226;DHT22;1119;48.288;8.726;2023-04-09T08:11:21;17.60;52.50
2226;DHT22;1119;48.288;8.726;2023-04-09T08:14:11;17.90;51.80
2226;DHT22;1119;48.288;8.726;2023-04-09T08:17:00;17.70;52.10
2226;DHT22;1119;48.288;8.726;2023-04-09T08:19:47;17.70;51.10
2226;DHT22;1119;48.288;8.726;2023-04-09T08:22:35;17.20;49.40
2226;DHT22;1119;48.288;8.726;2023-04-09T08:25:23;15.60;49.40
2226;DHT22;1119;48.288;8.726;2023-04-09T08:28:11;14.50;50.60
2226;DHT22;1119;48.288;8.726;2023-04-09T08:30:58;13.50;52.90
2226;DHT22;1119;48.288;8.726;2023-04-09T08:33:47;12.40;54.50
2226;DHT22;1119;48.288;8.726;2023-04-09T08:36:35;11.90;57.30
2226;DHT22;1119;48.288;8.726;2023-04-09T08:39:22;11.70;58.30
2226;DHT22;1119;48.288;8.726;2023-04-09T08:42:10;11.30;58.10
2226;DHT22;1119;48.288;8.726;2023-04-09T08:44:58;11.00;59.50
2226;DHT22;1119;48.288;8.726;2023-04-09T08:47:47;10.70;61.00
2226;DHT22;1119;48.288;8.726;2023-04-09T08:50:37;10.50;63.20
2226;DHT22;1119;48.288;8.726;2023-04-09T08:53:24;10.40;60.90
2226;DHT22;1119;48.288;8.726;2023-04-09T08:56:13;10.30;61.70
2226;DHT22;1119;48.288;8.726;2023-04-09T08:59:00;10.10;61.60
2226;DHT22;1119;48.288;8.726;2023-04-09T09:01:48;10.00;60.50
2226;DHT22;1119;48.288;8.726;2023-04-09T09:04:46;11.70;62.70
2226;DHT22;1119;48.288;8.726;2023-04-09T09:07:36;9.70;62.20
2226;DHT22;1119;48.288;8.726;2023-04-09T09:10:40;9.50;62.40
2226;DHT22;1119;48.288;8.726;2023-04-09T09:13:29;9.50;62.50
2226;DHT22;1119;48.288;8.726;2023-04-09T09:16:16;9.50;62.80
2226;DHT22;1119;48.288;8.726;2023-04-09T09:19:06;9.40;63.30
2226;DHT22;1119;48.288;8.726;2023-04-09T09:21:54;9.40;64.10
2226;DHT22;1119;48.288;8.726;2023-04-09T09:24:48;9.40;63.80
2226;DHT22;1119;48.288;8.726;2023-04-09T09:27:37;9.60;63.70
2226;DHT22;1119;48.288;8.726;2023-04-09T09:30:26;9.70;63.40
2226;DHT22;1119;48.288;8.726;2023-04-09T09:33:14;9.90;62.80
2226;DHT22;1119;48.288;8.726;2023-04-09T09:36:01;9.90;62.90
2226;DHT22;1119;48.288;8.726;2023-04-09T09:38:51;10.00;60.80
2226;DHT22;1119;48.288;8.726;2023-04-09T09:41:42;9.80;59.60
2226;DHT22;1119;48.288;8.726;2023-04-09T09:44:32;9.90;60.60
2226;DHT22;1119;48.288;8.726;2023-04-09T09:47:20;10.20;60.30
2226;DHT22;1119;48.288;8.726;2023-04-09T09:50:08;10.40;59.00
2226;DHT22;1119;48.288;8.726;2023-04-09T09:53:00;10.40;58.50
2226;DHT22;1119;48.288;8.726;2023-04-09T09:55:51;10.60;58.80
2226;DHT22;1119;48.288;8.726;2023-04-09T09:58:44;10.50;57.90
2226;DHT22;1119;48.288;8.726;2023-04-09T10:01:34;10.40;58.30
2226;DHT22;1119;48.288;8.726;2023-04-09T10:04:23;10.50;58.80
2226;DHT22;1119;48.288;8.726;2023-04-09T10:07:13;10.50;60.40
2226;DHT22;1119;48.288;8.726;2023-04-09T10:10:02;10.40;59.00
2226;DHT22;1119;48.288;8.726;2023-04-09T10:12:52;10.30;59.50
2226;DHT22;1119;48.288;8.726;2023-04-09T10:15:41;10.20;57.90
2226;DHT22;1119;48.288;8.726;2023-04-09T10:18:29;10.10;58.30
2226;DHT22;1119;48.288;8.726;2023-04-09T10:21:25;10.00;58.00
2226;DHT22;1119;48.288;8.726;2023-04-09T10:24:17;9.90;59.00
2226;DHT22;1119;48.288;8.726;2023-04-09T10:27:09;9.80;59.10
2226;DHT22;1119;48.288;8.726;2023-04-09T10:29:57;9.70;59.70
2226;DHT22;1119;48.288;8.726;2023-04-09T10:32:47;9.70;60.60
2226;DHT22;1119;48.288;8.726;2023-04-09T10:35:35;9.70;63.20
2226;DHT22;1119;48.288;8.726;2023-04-09T10:38:32;9.60;64.00
2226;DHT22;1119;48.288;8.726;2023-04-09T10:41:26;9.60;64.60
2226;DHT22;1119;48.288;8.726;2023-04-09T10:44:21;9.40;64.90
2226;DHT22;1119;48.288;8.726;2023-04-09T10:47:10;9.30;64.50
2226;DHT22;1119;48.288;8.726;2023-04-09T10:50:13;9.20;64.40
2226;DHT22;1119;48.288;8.726;2023-04-09T10:53:05;9.30;63.30
2226;DHT22;1119;48.288;8.726;2023-04-09T10:55:54;9.10;61.60
2226;DHT22;1119;48.288;8.726;2023-04-09T10:58:42;9.30;64.30
2226;DHT22;1119;48.288;8.726;2023-04-09T11:01:29;9.40;62.40
2226;DHT22;1119;48.288;8.726;2023-04-09T11:04:19;9.50;64.00
2226;DHT22;1119;48.288;8.726;2023-04-09T11:07:09;9.40;64.30
2226;DHT22;1119;48.288;8.726;2023-04-09T11:09:56;9.50;63.80
2226;DHT22;1119;48.288;8.726;2023-04-09T11:12:45;9.40;64.20
2226;DHT22;1119;48.288;8.726;2023-04-09T11:15:34;9.50;63.70
2226;DHT22;1119;48.288;8.726;2023-04-09T11:18:23;9.60;64.70
2226;DHT22;1119;48.288;8.726;2023-04-09T11:21:12;9.80;67.00
2226;DHT22;1119;48.288;8.726;2023-04-09T11:24:01;9.70;64.20
2226;DHT22;1119;48.288;8.726;2023-04-09T11:26:48;9.70;65.90
2226;DHT22;1119;48.288;8.726;2023-04-09T11:29:36;9.60;66.30
2226;DHT22;1119;48.288;8.726;2023-04-09T11:32:28;9.50;66.00
2226;DHT22;1119;48.288;8.726;2023-04-09T11:35:18;9.40;65.90
2226;DHT22;1119;48.288;8.726;2023-04-09T11:38:07;9.40;65.00
2226;DHT22;1119;48.288;8.726;2023-04-09T11:40:57;9.50;65.60
2226;DHT22;1119;48.288;8.726;2023-04-09T11:43:46;9.60;65.10
2226;DHT22;1119;48.288;8.726;2023-04-09T11:46:34;9.80;65.70
2226;DHT22;1119;48.288;8.726;2023-04-09T11:49:22;10.10;63.30
2226;DHT22;1119;48.288;8.726;2023-04-09T11:52:10;10.30;63.50
2226;DHT22;1119;48.288;8.726;2023-04-09T11:54:59;10.50;61.10
2226;DHT22;1119;48.288;8.726;2023-04-09T11:57:50;10.40;59.80
2226;DHT22;1119;48.288;8.726;2023-04-09T12:00:39;10.40;59.00
2226;DHT22;1119;48.288;8.726;2023-04-09T12:03:28;10.50;57.70
2226;DHT22;1119;48.288;8.726;2023-04-09T12:06:19;10.60;57.90
2226;DHT22;1119;48.288;8.726;2023-04-09T12:09:10;10.80;57.70
2226;DHT22;1119;48.288;8.726;2023-04-09T12:11:59;10.90;57.60
2226;DHT22;1119;48.288;8.726;2023-04-09T12:14:48;10.90;56.80
2226;DHT22;1119;48.288;8.726;2023-04-09T12:17:38;10.90;57.80
2226;DHT22;1119;48.288;8.726;2023-04-09T12:20:26;11.20;57.40
2226;DHT22;1119;48.288;8.726;2023-04-09T12:23:15;11.40;57.10
2226;DHT22;1119;48.288;8.726;2023-04-09T12:26:02;11.50;57.10
2226;DHT22;1119;48.288;8.726;2023-04-09T12:28:50;11.40;56.10
2226;DHT22;1119;48.288;8.726;2023-04-09T12:31:39;11.40;56.80
2226;DHT22;1119;48.288;8.726;2023-04-09T12:34:26;11.50;58.30
2226;DHT22;1119;48.288;8.726;2023-04-09T12:37:14;11.50;55.40
2226;DHT22;1119;48.288;8.726;2023-04-09T12:40:02;11.70;56.90
2226;DHT22;1119;48.288;8.726;2023-04-09T12:42:49;11.50;56.70
2226;DHT22;1119;48.288;8.726;2023-04-09T12:45:37;11.30;54.90
2226;DHT22;1119;48.288;8.726;2023-04-09T12:48:26;11.30;55.70
2226;DHT22;1119;48.288;8.726;2023-04-09T12:51:13;11.30;54.80
2226;DHT22;1119;48.288;8.726;2023-04-09T12:54:02;11.40;55.40
2226;DHT22;1119;48.288;8.726;2023-04-09T12:56:50;11.30;54.50
2226;DHT22;1119;48.288;8.726;2023-04-09T12:59:37;11.30;53.90
2226;DHT22;1119;48.288;8.726;2023-04-09T13:02:26;11.20;54.40
2226;DHT22;1119;48.288;8.726;2023-04-09T13:05:15;11.00;53.70
2226;DHT22;1119;48.288;8.726;2023-04-09T13:08:02;11.20;54.30
2226;DHT22;1119;48.288;8.726;2023-04-09T13:10:50;11.40;53.50
2226;DHT22;1119;48.288;8.726;2023-04-09T13:13:37;11.70;53.60
2226;DHT22;1119;48.288;8.726;2023-04-09T13:16:25;11.90;52.70
2226;DHT22;1119;48.288;8.726;2023-04-09T13:19:13;12.20;54.00
2226;DHT22;1119;48.288;8.726;2023-04-09T13:22:03;12.00;53.10
2226;DHT22;1119;48.288;8.726;2023-04-09T13:24:52;11.70;52.80
2226;DHT22;1119;48.288;8.726;2023-04-09T13:27:42;11.50;53.60
2226;DHT22;1119;48.288;8.726;2023-04-09T13:30:30;11.40;55.20
2226;DHT22;1119;48.288;8.726;2023-04-09T13:33:17;11.50;54.30
2226;DHT22;1119;48.288;8.726;2023-04-09T13:36:05;11.80;54.90
2226;DHT22;1119;48.288;8.726;2023-04-09T13:38:54;12.00;53.30
2226;DHT22;1119;48.288;8.726;2023-04-09T13:41:49;12.30;52.70
2226;DHT22;1119;48.288;8.726;2023-04-09T13:44:37;12.50;52.20
2226;DHT22;1119;48.288;8.726;2023-04-09T13:47:27;12.50;52.20
2226;DHT22;1119;48.288;8.726;2023-04-09T13:50:14;12.40;52.90
2226;DHT22;1119;48.288;8.726;2023-04-09T13:53:02;12.20;52.80
2226;DHT22;1119;48.288;8.726;2023-04-09T13:55:51;12.00;52.90
2226;DHT22;1119;48.288;8.726;2023-04-09T13:58:39;11.70;53.80
2226;DHT22;1119;48.288;8.726;2023-04-09T14:01:28;11.70;54.70
2226;DHT22;1119;48.288;8.726;2023-04-09T14:04:16;11.70;55.10
2226;DHT22;1119;48.288;8.726;2023-04-09T14:07:04;11.90;54.80
2226;DHT22;1119;48.288;8.726;2023-04-09T14:09:52;12.10;54.30
2226;DHT22;1119;48.288;8.726;2023-04-09T14:12:41;11.90;53.30
2226;DHT22;1119;48.288;8.726;2023-04-09T14:15:29;11.70;53.30
2226;DHT22;1119;48.288;8.726;2023-04-09T14:18:17;11.70;53.20
2226;DHT22;1119;48.288;8.726;2023-04-09T14:21:05;11.80;54.40
2226;DHT22;1119;48.288;8.726;2023-04-09T14:28:22;12.00;53.40
2226;DHT22;1119;48.288;8.726;2023-04-09T14:31:09;12.00;53.90
2226;DHT22;1119;48.288;8.726;2023-04-09T14:33:58;12.10;54.50
2226;DHT22;1119;48.288;8.726;2023-04-09T14:36:45;12.20;53.80
2226;DHT22;1119;48.288;8.726;2023-04-09T14:39:33;12.20;54.10
2226;DHT22;1119;48.288;8.726;2023-04-09T14:42:24;12.40;54.90
2226;DHT22;1119;48.288;8.726;2023-04-09T14:45:13;13.70;54.90
2226;DHT22;1119;48.288;8.726;2023-04-09T14:48:00;12.80;53.40
2226;DHT22;1119;48.288;8.726;2023-04-09T14:50:48;13.00;52.90
2226;DHT22;1119;48.288;8.726;2023-04-09T14:53:37;13.90;54.00
2226;DHT22;1119;48.288;8.726;2023-04-09T14:56:24;13.00;52.50
2226;DHT22;1119;48.288;8.726;2023-04-09T14:59:12;12.90;53.30
2226;DHT22;1119;48.288;8.726;2023-04-09T15:02:01;13.00;54.00
2226;DHT22;1119;48.288;8.726;2023-04-09T15:04:48;13.10;53.20
2226;DHT22;1119;48.288;8.726;2023-04-09T15:07:36;13.20;52.90
2226;DHT22;1119;48.288;8.726;2023-04-09T15:10:24;12.90;52.50
2226;DHT22;1119;48.288;8.726;2023-04-09T15:13:12;12.60;52.50
2226;DHT22;1119;48.288;8.726;2023-04-09T15:15:59;12.40;54.00
2226;DHT22;1119;48.288;8.726;2023-04-09T15:18:48;12.20;53.50
2226;DHT22;1119;48.288;8.726;2023-04-09T15:21:37;12.00;52.70
2226;DHT22;1119;48.288;8.726;2023-04-09T15:24:24;12.10;52.30
2226;DHT22;1119;48.288;8.726;2023-04-09T15:27:12;12.00;51.80
2226;DHT22;1119;48.288;8.726;2023-04-09T15:29:59;11.90;52.00
2226;DHT22;1119;48.288;8.726;2023-04-09T15:32:47;11.70;52.20
2226;DHT22;1119;48.288;8.726;2023-04-09T15:35:36;11.60;52.50
2226;DHT22;1119;48.288;8.726;2023-04-09T15:38:23;11.60;53.00
2226;DHT22;1119;48.288;8.726;2023-04-09T15:41:11;11.80;53.50
2226;DHT22;1119;48.288;8.726;2023-04-09T15:44:01;11.90;52.80
2226;DHT22;1119;48.288;8.726;2023-04-09T15:46:50;12.00;52.50
2226;DHT22;1119;48.288;8.726;2023-04-09T15:49:37;12.10;52.00
2226;DHT22;1119;48.288;8.726;2023-04-09T15:52:26;12.30;51.60
2226;DHT22;1119;48.288;8.726;2023-04-09T15:55:14;12.40;51.30
2226;DHT22;1119;48.288;8.726;2023-04-09T15:58:01;12.40;50.80
2226;DHT22;1119;48.288;8.726;2023-04-09T16:00:49;12.30;51.40
2226;DHT22;1119;48.288;8.726;2023-04-09T16:03:36;12.30;52.10
2226;DHT22;1119;48.288;8.726;2023-04-09T16:06:26;12.20;51.10
2226;DHT22;1119;48.288;8.726;2023-04-09T16:09:15;12.20;51.40
2226;DHT22;1119;48.288;8.726;2023-04-09T16:12:03;12.00;50.60
2226;DHT22;1119;48.288;8.726;2023-04-09T16:14:52;11.90;50.60
2226;DHT22;1119;48.288;8.726;2023-04-09T16:17:39;11.70;50.70
2226;DHT22;1119;48.288;8.726;2023-04-09T16:20:27;11.60;51.20
2226;DHT22;1119;48.288;8.726;2023-04-09T16:23:16;11.60;51.80
2226;DHT22;1119;48.288;8.726;2023-04-09T16:26:05;11.90;52.70
2226;DHT22;1119;48.288;8.726;2023-04-09T16:28:53;11.70;52.10
2226;DHT22;1119;48.288;8.726;2023-04-09T16:31:40;11.70;52.00
2226;DHT22;1119;48.288;8.726;2023-04-09T16:34:28;11.80;52.60
2226;DHT22;1119;48.288;8.726;2023-04-09T16:37:17;11.80;52.60
2226;DHT22;1119;48.288;8.726;2023-04-09T16:40:05;11.90;51.10
2226;DHT22;1119;48.288;8.726;2023-04-09T16:42:55;12.00;51.30
2226;DHT22;1119;48.288;8.726;2023-04-09T16:45:42;12.00;51.90
2226;DHT22;1119;48.288;8.726;2023-04-09T16:48:30;12.00;52.40
2226;DHT22;1119;48.288;8.726;2023-04-09T16:51:18;12.00;51.80
2226;DHT22;1119;48.288;8.726;2023-04-09T16:54:05;12.00;51.80
2226;DHT22;1119;48.288;8.726;2023-04-09T16:56:53;11.60;52.20
2226;DHT22;1119;48.288;8.726;2023-04-09T16:59:43;11.50;52.60
2226;DHT22;1119;48.288;8.726;2023-04-09T17:02:31;12.50;53.30
2226;DHT22;1119;48.288;8.726;2023-04-09T17:05:18;11.20;51.90
2226;DHT22;1119;48.288;8.726;2023-04-09T17:08:07;11.20;52.50
2226;DHT22;1119;48.288;8.726;2023-04-09T17:10:55;11.10;52.30
2226;DHT22;1119;48.288;8.726;2023-04-09T17:13:47;11.20;52.80
2226;DHT22;1119;48.288;8.726;2023-04-09T17:16:35;11.10;52.80
2226;DHT22;1119;48.288;8.726;2023-04-09T17:19:23;11.10;53.60
2226;DHT22;1119;48.288;8.726;2023-04-09T17:22:11;10.90;54.00
2226;DHT22;1119;48.288;8.726;2023-04-09T17:24:59;11.00;54.50
2226;DHT22;1119;48.288;8.726;2023-04-09T17:27:48;11.00;54.50
2226;DHT22;1119;48.288;8.726;2023-04-09T17:30:36;11.10;55.20
2226;DHT22;1119;48.288;8.726;2023-04-09T17:33:25;11.00;55.60
2226;DHT22;1119;48.288;8.726;2023-04-09T17:36:13;10.90;55.60
2226;DHT22;1119;48.288;8.726;2023-04-09T17:39:01;10.90;55.90
2226;DHT22;1119;48.288;8.726;2023-04-09T17:41:49;10.80;55.90
2226;DHT22;1119;48.288;8.726;2023-04-09T17:44:37;10.80;56.40
2226;DHT22;1119;48.288;8.726;2023-04-09T17:47:26;10.80;56.20
2226;DHT22;1119;48.288;8.726;2023-04-09T17:50:15;10.80;56.50
2226;DHT22;1119;48.288;8.726;2023-04-09T17:53:02;10.80;56.20
2226;DHT22;1119;48.288;8.726;2023-04-09T17:55:50;10.80;56.70
2226;DHT22;1119;48.288;8.726;2023-04-09T17:58:37;10.80;56.70
2226;DHT22;1119;48.288;8.726;2023-04-09T18:01:25;10.80;56.60
2226;DHT22;1119;48.288;8.726;2023-04-09T18:04:13;10.70;56.50
2226;DHT22;1119;48.288;8.726;2023-04-09T18:07:02;10.70;57.10
2226;DHT22;1119;48.288;8.726;2023-04-09T18:09:50;10.60;56.40
2226;DHT22;1119;48.288;8.726;2023-04-09T18:12:38;10.70;56.30
2226;DHT22;1119;48.288;8.726;2023-04-09T18:15:25;10.60;56.20
2226;DHT22;1119;48.288;8.726;2023-04-09T18:18:13;10.60;56.90
2226;DHT22;1119;48.288;8.726;2023-04-09T18:21:01;10.60;56.40
2226;DHT22;1119;48.288;8.726;2023-04-09T18:23:51;10.60;56.20
2226;DHT22;1119;48.288;8.726;2023-04-09T18:26:38;10.60;56.40
2226;DHT22;1119;48.288;8.726;2023-04-09T18:29:26;10.60;56.20
2226;DHT22;1119;48.288;8.726;2023-04-09T18:32:14;10.40;56.40
2226;DHT22;1119;48.288;8.726;2023-04-09T18:35:01;10.40;56.60
2226;DHT22;1119;48.288;8.726;2023-04-09T18:37:49;10.40;56.60
2226;DHT22;1119;48.288;8.726;2023-04-09T18:40:41;10.40;56.60